sensor_id;sensor_type;location;lat;lon;timestamp;P1;durP1;ratioP1;P2;durP2;ratioP2
703;SDS011;335;48.694;9.120;2023-01-31T00:02:05;10.03;;;6.53;;
703;SDS011;335;48.694;9.120;2023-01-31T00:04:30;10.93;;;6.40;;
703;SDS011;335;48.694;9.120;2023-01-31T00:06:56;6.43;;;5.50;;
703;SDS011;335;48.694;9.120;2023-01-31T00:09:21;11.83;;;6.80;;
703;SDS011;335;48.694;9.120;2023-01-31T00:11:46;9.33;;;5.60;;
703;SDS011;335;48.694;9.120;2023-01-31T00:14:14;8.90;;;5.83;;
703;SDS011;335;48.694;9.120;2023-01-31T00:16:41;7.88;;;6.45;;
703;SDS011;335;48.694;9.120;2023-01-31T00:19:07;8.83;;;5.70;;
703;SDS011;335;48.694;9.120;2023-01-31T00:21:32;9.00;;;5.43;;
703;SDS011;335;48.694;9.120;2023-01-31T00:23:58;11.00;;;5.80;;
703;SDS011;335;48.694;9.120;2023-01-31T00:26:28;9.30;;;6.47;;
703;SDS011;335;48.694;9.120;2023-01-31T00:28:54;8.10;;;5.15;;
703;SDS011;335;48.694;9.120;2023-01-31T00:33:49;11.85;;;7.32;;
703;SDS011;335;48.694;9.120;2023-01-31T00:36:16;7.07;;;5.57;;
703;SDS011;335;48.694;9.120;2023-01-31T00:38:43;10.57;;;6.50;;
703;SDS011;335;48.694;9.120;2023-01-31T00:41:11;11.05;;;5.50;;
703;SDS011;335;48.694;9.120;2023-01-31T00:43:36;7.20;;;6.20;;
703;SDS011;335;48.694;9.120;2023-01-31T00:46:02;11.50;;;7.10;;
703;SDS011;335;48.694;9.120;2023-01-31T00:48:28;9.75;;;6.05;;
703;SDS011;335;48.694;9.120;2023-01-31T00:50:53;10.40;;;6.80;;
703;SDS011;335;48.694;9.120;2023-01-31T00:53:19;11.30;;;5.93;;
703;SDS011;335;48.694;9.120;2023-01-31T00:55:51;12.68;;;6.80;;
703;SDS011;335;48.694;9.120;2023-01-31T00:58:17;6.82;;;5.20;;
703;SDS011;335;48.694;9.120;2023-01-31T01:00:43;8.43;;;5.97;;
703;SDS011;335;48.694;9.120;2023-01-31T01:03:08;9.67;;;6.30;;
703;SDS011;335;48.694;9.120;2023-01-31T01:05:34;14.00;;;6.33;;
703;SDS011;335;48.694;9.120;2023-01-31T01:07:59;6.67;;;5.43;;
703;SDS011;335;48.694;9.120;2023-01-31T01:10:24;10.53;;;6.30;;
703;SDS011;335;48.694;9.120;2023-01-31T01:12:50;10.80;;;6.77;;
703;SDS011;335;48.694;9.120;2023-01-31T01:15:15;10.27;;;7.23;;
703;SDS011;335;48.694;9.120;2023-01-31T01:17:41;9.17;;;5.90;;
703;SDS011;335;48.694;9.120;2023-01-31T01:20:06;10.30;;;5.97;;
703;SDS011;335;48.694;9.120;2023-01-31T01:22:32;9.57;;;6.95;;
703;SDS011;335;48.694;9.120;2023-01-31T01:24:58;10.80;;;6.53;;
703;SDS011;335;48.694;9.120;2023-01-31T01:27:24;7.67;;;6.03;;
703;SDS011;335;48.694;9.120;2023-01-31T01:29:51;8.88;;;6.07;;
703;SDS011;335;48.694;9.120;2023-01-31T01:32:16;8.83;;;6.60;;
703;SDS011;335;48.694;9.120;2023-01-31T01:34:41;17.47;;;7.37;;
703;SDS011;335;48.694;9.120;2023-01-31T01:37:07;10.70;;;6.23;;
703;SDS011;335;48.694;9.120;2023-01-31T01:39:43;8.45;;;6.25;;
703;SDS011;335;48.694;9.120;2023-01-31T01:42:16;8.82;;;5.63;;
703;SDS011;335;48.694;9.120;2023-01-31T01:44:56;10.23;;;5.95;;
703;SDS011;335;48.694;9.120;2023-01-31T01:47:34;9.40;;;5.53;;
703;SDS011;335;48.694;9.120;2023-01-31T01:50:03;10.50;;;6.28;;
703;SDS011;335;48.694;9.120;2023-01-31T01:52:33;10.43;;;6.10;;
703;SDS011;335;48.694;9.120;2023-01-31T01:55:03;11.05;;;6.07;;
703;SDS011;335;48.694;9.120;2023-01-31T01:57:34;9.88;;;6.25;;
703;SDS011;335;48.694;9.120;2023-01-31T02:00:23;10.43;;;5.90;;
703;SDS011;335;48.694;9.120;2023-01-31T02:02:49;10.00;;;5.38;;
703;SDS011;335;48.694;9.120;2023-01-31T02:05:19;7.40;;;5.35;;
703;SDS011;335;48.694;9.120;2023-01-31T02:07:46;8.40;;;5.55;;
703;SDS011;335;48.694;9.120;2023-01-31T02:10:31;6.33;;;5.60;;
703;SDS011;335;48.694;9.120;2023-01-31T02:13:00;7.07;;;5.97;;
703;SDS011;335;48.694;9.120;2023-01-31T02:15:26;10.60;;;5.85;;
703;SDS011;335;48.694;9.120;2023-01-31T02:17:51;10.43;;;6.97;;
703;SDS011;335;48.694;9.120;2023-01-31T02:20:26;8.93;;;5.97;;
703;SDS011;335;48.694;9.120;2023-01-31T02:23:14;11.25;;;6.32;;
703;SDS011;335;48.694;9.120;2023-01-31T02:26:00;7.90;;;5.15;;
703;SDS011;335;48.694;9.120;2023-01-31T02:34:28;7.22;;;5.45;;
703;SDS011;335;48.694;9.120;2023-01-31T02:36:58;5.93;;;5.32;;
703;SDS011;335;48.694;9.120;2023-01-31T02:42:32;13.32;;;5.15;;
703;SDS011;335;48.694;9.120;2023-01-31T02:47:47;11.30;;;6.95;;
703;SDS011;335;48.694;9.120;2023-01-31T02:50:23;8.85;;;5.13;;
703;SDS011;335;48.694;9.120;2023-01-31T02:52:52;7.68;;;5.65;;
703;SDS011;335;48.694;9.120;2023-01-31T02:55:37;8.30;;;6.60;;
703;SDS011;335;48.694;9.120;2023-01-31T02:58:22;10.65;;;5.95;;
703;SDS011;335;48.694;9.120;2023-01-31T03:00:51;10.00;;;7.30;;
703;SDS011;335;48.694;9.120;2023-01-31T03:03:21;7.93;;;5.95;;
703;SDS011;335;48.694;9.120;2023-01-31T03:06:06;6.53;;;5.53;;
703;SDS011;335;48.694;9.120;2023-01-31T03:08:35;12.75;;;7.18;;
703;SDS011;335;48.694;9.120;2023-01-31T03:11:01;8.05;;;5.90;;
703;SDS011;335;48.694;9.120;2023-01-31T03:16:23;10.70;;;5.63;;
703;SDS011;335;48.694;9.120;2023-01-31T03:19:14;10.57;;;6.03;;
703;SDS011;335;48.694;9.120;2023-01-31T03:21:44;11.18;;;6.20;;
703;SDS011;335;48.694;9.120;2023-01-31T03:24:12;7.80;;;6.32;;
703;SDS011;335;48.694;9.120;2023-01-31T03:26:39;7.18;;;5.82;;
703;SDS011;335;48.694;9.120;2023-01-31T03:29:05;10.13;;;5.53;;
703;SDS011;335;48.694;9.120;2023-01-31T03:34:04;6.13;;;5.20;;
703;SDS011;335;48.694;9.120;2023-01-31T03:39:10;11.05;;;6.40;;
703;SDS011;335;48.694;9.120;2023-01-31T03:41:50;8.73;;;5.45;;
703;SDS011;335;48.694;9.120;2023-01-31T03:47:15;9.27;;;5.93;;
703;SDS011;335;48.694;9.120;2023-01-31T03:49:44;7.15;;;5.53;;
703;SDS011;335;48.694;9.120;2023-01-31T03:52:10;9.02;;;5.30;;
703;SDS011;335;48.694;9.120;2023-01-31T03:54:41;8.45;;;5.63;;
703;SDS011;335;48.694;9.120;2023-01-31T03:57:17;12.73;;;5.85;;
703;SDS011;335;48.694;9.120;2023-01-31T03:59:47;8.45;;;5.57;;
703;SDS011;335;48.694;9.120;2023-01-31T04:02:18;6.75;;;5.35;;
703;SDS011;335;48.694;9.120;2023-01-31T04:04:47;7.07;;;5.53;;
703;SDS011;335;48.694;9.120;2023-01-31T04:07:15;13.50;;;7.88;;
703;SDS011;335;48.694;9.120;2023-01-31T04:09:41;12.70;;;6.10;;
703;SDS011;335;48.694;9.120;2023-01-31T04:12:07;8.60;;;5.80;;
703;SDS011;335;48.694;9.120;2023-01-31T04:14:36;14.35;;;5.97;;
703;SDS011;335;48.694;9.120;2023-01-31T04:17:01;9.20;;;5.53;;
703;SDS011;335;48.694;9.120;2023-01-31T04:19:27;8.40;;;6.13;;
703;SDS011;335;48.694;9.120;2023-01-31T04:21:52;9.63;;;5.80;;
703;SDS011;335;48.694;9.120;2023-01-31T04:24:17;11.43;;;6.73;;
703;SDS011;335;48.694;9.120;2023-01-31T04:26:43;12.43;;;5.87;;
703;SDS011;335;48.694;9.120;2023-01-31T04:29:08;7.23;;;5.57;;
703;SDS011;335;48.694;9.120;2023-01-31T04:31:33;9.57;;;6.90;;
703;SDS011;335;48.694;9.120;2023-01-31T04:33:59;9.33;;;5.87;;
703;SDS011;335;48.694;9.120;2023-01-31T04:36:24;11.73;;;5.97;;
703;SDS011;335;48.694;9.120;2023-01-31T04:38:49;11.00;;;7.20;;
703;SDS011;335;48.694;9.120;2023-01-31T04:41:15;6.37;;;5.40;;
703;SDS011;335;48.694;9.120;2023-01-31T04:43:40;10.27;;;6.53;;
703;SDS011;335;48.694;9.120;2023-01-31T04:46:05;7.40;;;6.07;;
703;SDS011;335;48.694;9.120;2023-01-31T04:48:31;11.80;;;5.70;;
703;SDS011;335;48.694;9.120;2023-01-31T04:50:56;12.37;;;6.53;;
703;SDS011;335;48.694;9.120;2023-01-31T04:53:22;11.53;;;6.53;;
703;SDS011;335;48.694;9.120;2023-01-31T04:55:47;9.73;;;6.90;;
703;SDS011;335;48.694;9.120;2023-01-31T04:58:13;9.33;;;5.87;;
703;SDS011;335;48.694;9.120;2023-01-31T05:00:41;10.67;;;6.10;;
703;SDS011;335;48.694;9.120;2023-01-31T05:03:08;5.88;;;4.65;;
703;SDS011;335;48.694;9.120;2023-01-31T05:05:34;12.23;;;6.83;;
703;SDS011;335;48.694;9.120;2023-01-31T05:07:59;16.60;;;8.53;;
703;SDS011;335;48.694;9.120;2023-01-31T05:10:24;11.07;;;8.20;;
703;SDS011;335;48.694;9.120;2023-01-31T05:12:50;10.77;;;8.37;;
703;SDS011;335;48.694;9.120;2023-01-31T05:15:15;9.50;;;5.93;;
703;SDS011;335;48.694;9.120;2023-01-31T05:17:41;13.33;;;6.50;;
703;SDS011;335;48.694;9.120;2023-01-31T05:20:06;7.00;;;5.70;;
703;SDS011;335;48.694;9.120;2023-01-31T05:22:32;10.98;;;6.55;;
703;SDS011;335;48.694;9.120;2023-01-31T05:24:58;8.30;;;6.90;;
703;SDS011;335;48.694;9.120;2023-01-31T05:27:23;10.50;;;7.17;;
703;SDS011;335;48.694;9.120;2023-01-31T05:29:49;12.10;;;7.70;;
703;SDS011;335;48.694;9.120;2023-01-31T05:32:14;9.93;;;7.53;;
703;SDS011;335;48.694;9.120;2023-01-31T05:34:41;10.93;;;6.90;;
703;SDS011;335;48.694;9.120;2023-01-31T05:37:07;7.37;;;6.13;;
703;SDS011;335;48.694;9.120;2023-01-31T05:39:32;12.90;;;6.90;;
703;SDS011;335;48.694;9.120;2023-01-31T05:41:57;12.53;;;8.00;;
703;SDS011;335;48.694;9.120;2023-01-31T05:44:23;11.47;;;7.90;;
703;SDS011;335;48.694;9.120;2023-01-31T05:46:48;10.10;;;7.33;;
703;SDS011;335;48.694;9.120;2023-01-31T05:49:14;11.43;;;7.50;;
703;SDS011;335;48.694;9.120;2023-01-31T05:51:39;13.67;;;7.60;;
703;SDS011;335;48.694;9.120;2023-01-31T05:54:05;14.20;;;8.43;;
703;SDS011;335;48.694;9.120;2023-01-31T05:56:31;9.37;;;8.03;;
703;SDS011;335;48.694;9.120;2023-01-31T05:58:56;8.30;;;6.27;;
703;SDS011;335;48.694;9.120;2023-01-31T06:01:23;12.60;;;7.53;;
703;SDS011;335;48.694;9.120;2023-01-31T06:03:50;15.77;;;7.78;;
703;SDS011;335;48.694;9.120;2023-01-31T06:06:15;11.87;;;8.30;;
703;SDS011;335;48.694;9.120;2023-01-31T06:08:41;16.80;;;8.07;;
703;SDS011;335;48.694;9.120;2023-01-31T06:11:07;19.70;;;11.30;;
703;SDS011;335;48.694;9.120;2023-01-31T06:13:38;10.57;;;7.95;;
703;SDS011;335;48.694;9.120;2023-01-31T06:16:04;8.93;;;7.70;;
703;SDS011;335;48.694;9.120;2023-01-31T06:18:30;15.80;;;7.80;;
703;SDS011;335;48.694;9.120;2023-01-31T06:20:55;12.03;;;8.03;;
703;SDS011;335;48.694;9.120;2023-01-31T06:23:21;12.00;;;7.50;;
703;SDS011;335;48.694;9.120;2023-01-31T06:25:49;12.63;;;8.67;;
703;SDS011;335;48.694;9.120;2023-01-31T06:28:15;11.60;;;8.68;;
703;SDS011;335;48.694;9.120;2023-01-31T06:30:41;14.73;;;8.13;;
703;SDS011;335;48.694;9.120;2023-01-31T06:33:06;14.77;;;8.70;;
703;SDS011;335;48.694;9.120;2023-01-31T06:35:32;13.35;;;9.32;;
703;SDS011;335;48.694;9.120;2023-01-31T06:37:58;10.87;;;7.70;;
703;SDS011;335;48.694;9.120;2023-01-31T06:40:23;18.07;;;9.33;;
703;SDS011;335;48.694;9.120;2023-01-31T06:42:48;9.47;;;7.40;;
703;SDS011;335;48.694;9.120;2023-01-31T06:45:14;19.23;;;9.47;;
703;SDS011;335;48.694;9.120;2023-01-31T06:47:40;11.90;;;7.93;;
703;SDS011;335;48.694;9.120;2023-01-31T06:50:05;14.10;;;8.93;;
703;SDS011;335;48.694;9.120;2023-01-31T06:52:30;11.60;;;8.60;;
703;SDS011;335;48.694;9.120;2023-01-31T06:54:56;14.80;;;9.37;;
703;SDS011;335;48.694;9.120;2023-01-31T06:57:21;15.10;;;9.73;;
703;SDS011;335;48.694;9.120;2023-01-31T06:59:46;13.23;;;8.57;;
703;SDS011;335;48.694;9.120;2023-01-31T07:02:12;10.83;;;9.00;;
703;SDS011;335;48.694;9.120;2023-01-31T07:04:37;11.87;;;8.50;;
703;SDS011;335;48.694;9.120;2023-01-31T07:07:02;12.33;;;8.80;;
703;SDS011;335;48.694;9.120;2023-01-31T07:09:28;14.17;;;8.77;;
703;SDS011;335;48.694;9.120;2023-01-31T07:11:53;14.43;;;9.17;;
703;SDS011;335;48.694;9.120;2023-01-31T07:14:18;14.40;;;9.60;;
703;SDS011;335;48.694;9.120;2023-01-31T07:16:43;14.67;;;8.87;;
703;SDS011;335;48.694;9.120;2023-01-31T07:19:09;12.60;;;8.63;;
703;SDS011;335;48.694;9.120;2023-01-31T07:21:35;12.70;;;8.20;;
703;SDS011;335;48.694;9.120;2023-01-31T07:24:01;14.48;;;9.95;;
703;SDS011;335;48.694;9.120;2023-01-31T07:26:27;11.93;;;9.38;;
703;SDS011;335;48.694;9.120;2023-01-31T07:28:52;15.50;;;9.37;;
703;SDS011;335;48.694;9.120;2023-01-31T07:31:18;18.90;;;9.33;;
703;SDS011;335;48.694;9.120;2023-01-31T07:33:44;12.88;;;8.93;;
703;SDS011;335;48.694;9.120;2023-01-31T07:36:10;15.77;;;8.93;;
703;SDS011;335;48.694;9.120;2023-01-31T07:38:40;13.48;;;9.40;;
703;SDS011;335;48.694;9.120;2023-01-31T07:41:06;10.82;;;8.40;;
703;SDS011;335;48.694;9.120;2023-01-31T07:43:35;14.38;;;9.65;;
703;SDS011;335;48.694;9.120;2023-01-31T07:46:00;14.20;;;10.00;;
703;SDS011;335;48.694;9.120;2023-01-31T07:48:26;16.33;;;9.37;;
703;SDS011;335;48.694;9.120;2023-01-31T07:50:52;12.13;;;8.87;;
703;SDS011;335;48.694;9.120;2023-01-31T07:53:22;17.35;;;9.75;;
703;SDS011;335;48.694;9.120;2023-01-31T07:55:47;17.03;;;11.40;;
703;SDS011;335;48.694;9.120;2023-01-31T07:58:13;16.03;;;8.30;;
703;SDS011;335;48.694;9.120;2023-01-31T08:00:39;13.60;;;8.95;;
703;SDS011;335;48.694;9.120;2023-01-31T08:03:24;10.57;;;8.02;;
703;SDS011;335;48.694;9.120;2023-01-31T08:05:56;12.52;;;8.60;;
703;SDS011;335;48.694;9.120;2023-01-31T08:08:22;11.27;;;8.67;;
703;SDS011;335;48.694;9.120;2023-01-31T08:10:47;13.73;;;8.50;;
703;SDS011;335;48.694;9.120;2023-01-31T08:13:12;13.13;;;9.27;;
703;SDS011;335;48.694;9.120;2023-01-31T08:15:38;17.67;;;9.50;;
703;SDS011;335;48.694;9.120;2023-01-31T08:18:03;17.10;;;8.27;;
703;SDS011;335;48.694;9.120;2023-01-31T08:20:28;12.00;;;8.60;;
703;SDS011;335;48.694;9.120;2023-01-31T08:22:55;10.27;;;8.17;;
703;SDS011;335;48.694;9.120;2023-01-31T08:25:23;16.02;;;8.13;;
703;SDS011;335;48.694;9.120;2023-01-31T08:27:50;17.35;;;10.48;;
703;SDS011;335;48.694;9.120;2023-01-31T08:30:16;13.77;;;7.60;;
703;SDS011;335;48.694;9.120;2023-01-31T08:32:41;18.90;;;8.57;;
703;SDS011;335;48.694;9.120;2023-01-31T08:35:06;11.17;;;7.23;;
703;SDS011;335;48.694;9.120;2023-01-31T08:37:32;14.00;;;7.20;;
703;SDS011;335;48.694;9.120;2023-01-31T08:39:58;12.27;;;6.60;;
703;SDS011;335;48.694;9.120;2023-01-31T08:42:23;8.57;;;6.00;;
703;SDS011;335;48.694;9.120;2023-01-31T08:44:48;7.40;;;5.47;;
703;SDS011;335;48.694;9.120;2023-01-31T08:47:14;6.00;;;4.53;;
703;SDS011;335;48.694;9.120;2023-01-31T08:49:39;9.33;;;4.40;;
703;SDS011;335;48.694;9.120;2023-01-31T08:52:04;8.90;;;4.87;;
703;SDS011;335;48.694;9.120;2023-01-31T08:54:30;9.90;;;4.57;;
703;SDS011;335;48.694;9.120;2023-01-31T08:56:55;5.80;;;4.63;;
703;SDS011;335;48.694;9.120;2023-01-31T08:59:20;7.93;;;4.60;;
703;SDS011;335;48.694;9.120;2023-01-31T09:01:46;8.73;;;5.03;;
703;SDS011;335;48.694;9.120;2023-01-31T09:04:11;10.20;;;4.50;;
703;SDS011;335;48.694;9.120;2023-01-31T09:06:37;6.67;;;3.33;;
703;SDS011;335;48.694;9.120;2023-01-31T09:09:02;6.37;;;4.20;;
703;SDS011;335;48.694;9.120;2023-01-31T09:11:28;6.00;;;4.20;;
703;SDS011;335;48.694;9.120;2023-01-31T09:13:54;5.87;;;4.00;;
703;SDS011;335;48.694;9.120;2023-01-31T09:16:20;5.03;;;3.70;;
703;SDS011;335;48.694;9.120;2023-01-31T09:18:45;4.77;;;4.07;;
703;SDS011;335;48.694;9.120;2023-01-31T09:21:12;7.73;;;4.47;;
703;SDS011;335;48.694;9.120;2023-01-31T09:23:38;8.47;;;4.60;;
703;SDS011;335;48.694;9.120;2023-01-31T09:26:04;10.23;;;5.27;;
703;SDS011;335;48.694;9.120;2023-01-31T09:28:30;4.60;;;4.20;;
703;SDS011;335;48.694;9.120;2023-01-31T09:31:00;5.70;;;3.47;;
703;SDS011;335;48.694;9.120;2023-01-31T09:33:30;7.50;;;4.27;;
703;SDS011;335;48.694;9.120;2023-01-31T09:35:57;6.10;;;3.97;;
703;SDS011;335;48.694;9.120;2023-01-31T09:38:24;4.77;;;3.53;;
703;SDS011;335;48.694;9.120;2023-01-31T09:40:50;8.50;;;4.47;;
703;SDS011;335;48.694;9.120;2023-01-31T09:43:16;10.40;;;4.35;;
703;SDS011;335;48.694;9.120;2023-01-31T09:45:43;7.38;;;4.82;;
703;SDS011;335;48.694;9.120;2023-01-31T09:48:13;13.05;;;4.47;;
703;SDS011;335;48.694;9.120;2023-01-31T09:50:42;5.57;;;3.50;;
703;SDS011;335;48.694;9.120;2023-01-31T09:53:12;5.07;;;4.22;;
703;SDS011;335;48.694;9.120;2023-01-31T09:55:45;6.70;;;4.40;;
703;SDS011;335;48.694;9.120;2023-01-31T09:58:18;6.85;;;4.47;;
703;SDS011;335;48.694;9.120;2023-01-31T10:00:52;11.25;;;4.22;;
703;SDS011;335;48.694;9.120;2023-01-31T10:11:46;10.45;;;4.47;;
703;SDS011;335;48.694;9.120;2023-01-31T10:16:55;7.07;;;3.70;;
703;SDS011;335;48.694;9.120;2023-01-31T10:19:28;7.05;;;4.82;;
703;SDS011;335;48.694;9.120;2023-01-31T10:21:58;9.07;;;4.50;;
703;SDS011;335;48.694;9.120;2023-01-31T10:24:28;6.50;;;3.92;;
703;SDS011;335;48.694;9.120;2023-01-31T10:26:59;6.47;;;4.65;;
703;SDS011;335;48.694;9.120;2023-01-31T10:29:45;8.32;;;5.05;;
703;SDS011;335;48.694;9.120;2023-01-31T10:34:55;5.75;;;5.15;;
703;SDS011;335;48.694;9.120;2023-01-31T10:37:34;5.43;;;4.15;;
703;SDS011;335;48.694;9.120;2023-01-31T10:40:13;11.85;;;5.97;;
703;SDS011;335;48.694;9.120;2023-01-31T10:42:41;13.45;;;3.90;;
703;SDS011;335;48.694;9.120;2023-01-31T10:45:31;6.47;;;3.33;;
703;SDS011;335;48.694;9.120;2023-01-31T10:48:30;4.70;;;3.20;;
703;SDS011;335;48.694;9.120;2023-01-31T10:56:18;6.47;;;3.80;;
703;SDS011;335;48.694;9.120;2023-01-31T10:58:49;5.50;;;3.17;;
703;SDS011;335;48.694;9.120;2023-01-31T11:01:15;5.47;;;3.57;;
703;SDS011;335;48.694;9.120;2023-01-31T11:03:45;5.63;;;3.10;;
703;SDS011;335;48.694;9.120;2023-01-31T11:06:12;5.43;;;3.47;;
703;SDS011;335;48.694;9.120;2023-01-31T11:08:42;4.20;;;3.30;;
703;SDS011;335;48.694;9.120;2023-01-31T11:11:14;7.55;;;3.10;;
703;SDS011;335;48.694;9.120;2023-01-31T11:14:03;3.75;;;2.55;;
703;SDS011;335;48.694;9.120;2023-01-31T11:16:34;5.05;;;3.30;;
703;SDS011;335;48.694;9.120;2023-01-31T11:19:12;5.10;;;3.33;;
703;SDS011;335;48.694;9.120;2023-01-31T11:21:44;9.48;;;3.38;;
703;SDS011;335;48.694;9.120;2023-01-31T11:24:19;6.30;;;3.22;;
703;SDS011;335;48.694;9.120;2023-01-31T11:26:53;4.95;;;3.30;;
703;SDS011;335;48.694;9.120;2023-01-31T11:29:25;3.97;;;2.67;;
703;SDS011;335;48.694;9.120;2023-01-31T11:31:52;3.88;;;2.78;;
703;SDS011;335;48.694;9.120;2023-01-31T11:34:20;5.30;;;2.80;;
703;SDS011;335;48.694;9.120;2023-01-31T11:36:47;5.13;;;3.85;;
703;SDS011;335;48.694;9.120;2023-01-31T11:39:24;2.70;;;2.40;;
703;SDS011;335;48.694;9.120;2023-01-31T11:41:55;5.27;;;2.00;;
703;SDS011;335;48.694;9.120;2023-01-31T11:44:22;5.73;;;2.73;;
703;SDS011;335;48.694;9.120;2023-01-31T11:49:34;4.70;;;2.80;;
703;SDS011;335;48.694;9.120;2023-01-31T11:52:11;4.85;;;2.53;;
703;SDS011;335;48.694;9.120;2023-01-31T11:54:41;5.85;;;2.90;;
703;SDS011;335;48.694;9.120;2023-01-31T11:57:13;5.78;;;2.60;;
703;SDS011;335;48.694;9.120;2023-01-31T11:59:50;5.55;;;2.90;;
703;SDS011;335;48.694;9.120;2023-01-31T12:02:30;4.25;;;3.25;;
703;SDS011;335;48.694;9.120;2023-01-31T12:08:26;4.47;;;2.63;;
703;SDS011;335;48.694;9.120;2023-01-31T12:13:47;4.78;;;2.35;;
703;SDS011;335;48.694;9.120;2023-01-31T12:16:18;4.80;;;2.60;;
703;SDS011;335;48.694;9.120;2023-01-31T12:26:53;2.75;;;2.40;;
703;SDS011;335;48.694;9.120;2023-01-31T12:38:08;6.95;;;3.55;;
703;SDS011;335;48.694;9.120;2023-01-31T12:41:02;7.05;;;2.92;;
703;SDS011;335;48.694;9.120;2023-01-31T12:46:20;4.90;;;2.95;;
703;SDS011;335;48.694;9.120;2023-01-31T13:00:31;8.73;;;3.08;;
703;SDS011;335;48.694;9.120;2023-01-31T13:05:45;9.52;;;3.25;;
703;SDS011;335;48.694;9.120;2023-01-31T13:08:16;3.95;;;2.22;;
703;SDS011;335;48.694;9.120;2023-01-31T13:10:47;7.30;;;3.45;;
703;SDS011;335;48.694;9.120;2023-01-31T13:13:21;3.33;;;2.30;;
703;SDS011;335;48.694;9.120;2023-01-31T13:16:33;3.55;;;2.80;;
703;SDS011;335;48.694;9.120;2023-01-31T13:18:40;3.85;;;3.50;;
703;SDS011;335;48.694;9.120;2023-01-31T13:21:07;5.35;;;2.63;;
703;SDS011;335;48.694;9.120;2023-01-31T13:23:39;6.28;;;2.80;;
703;SDS011;335;48.694;9.120;2023-01-31T13:26:10;4.55;;;3.78;;
703;SDS011;335;48.694;9.120;2023-01-31T13:28:42;6.05;;;3.40;;
703;SDS011;335;48.694;9.120;2023-01-31T13:31:29;8.25;;;4.10;;
703;SDS011;335;48.694;9.120;2023-01-31T13:33:59;7.63;;;3.30;;
703;SDS011;335;48.694;9.120;2023-01-31T13:36:34;6.57;;;3.25;;
703;SDS011;335;48.694;9.120;2023-01-31T13:39:07;7.82;;;3.35;;
703;SDS011;335;48.694;9.120;2023-01-31T13:41:53;7.07;;;3.00;;
703;SDS011;335;48.694;9.120;2023-01-31T13:44:18;3.93;;;2.60;;
703;SDS011;335;48.694;9.120;2023-01-31T13:47:02;4.70;;;3.47;;
703;SDS011;335;48.694;9.120;2023-01-31T13:50:05;3.92;;;3.30;;
703;SDS011;335;48.694;9.120;2023-01-31T13:52:49;5.50;;;2.90;;
703;SDS011;335;48.694;9.120;2023-01-31T13:55:17;4.80;;;2.80;;
703;SDS011;335;48.694;9.120;2023-01-31T13:58:05;4.38;;;3.97;;
703;SDS011;335;48.694;9.120;2023-01-31T14:11:30;7.07;;;3.28;;
703;SDS011;335;48.694;9.120;2023-01-31T14:13:50;8.18;;;3.05;;
703;SDS011;335;48.694;9.120;2023-01-31T14:16:43;4.18;;;3.03;;
703;SDS011;335;48.694;9.120;2023-01-31T14:21:51;4.38;;;2.22;;
703;SDS011;335;48.694;9.120;2023-01-31T14:27:27;4.05;;;2.47;;
703;SDS011;335;48.694;9.120;2023-01-31T14:32:39;4.60;;;3.00;;
703;SDS011;335;48.694;9.120;2023-01-31T14:37:51;6.72;;;3.60;;
703;SDS011;335;48.694;9.120;2023-01-31T14:43:09;10.05;;;3.20;;
703;SDS011;335;48.694;9.120;2023-01-31T14:48:19;3.35;;;3.05;;
703;SDS011;335;48.694;9.120;2023-01-31T14:56:20;4.35;;;3.95;;
703;SDS011;335;48.694;9.120;2023-01-31T14:58:51;3.35;;;3.10;;
703;SDS011;335;48.694;9.120;2023-01-31T15:01:18;4.80;;;4.30;;
703;SDS011;335;48.694;9.120;2023-01-31T15:03:49;6.13;;;3.42;;
703;SDS011;335;48.694;9.120;2023-01-31T15:06:31;4.05;;;3.53;;
703;SDS011;335;48.694;9.120;2023-01-31T15:11:59;6.78;;;4.38;;
703;SDS011;335;48.694;9.120;2023-01-31T15:14:34;5.53;;;3.90;;
703;SDS011;335;48.694;9.120;2023-01-31T15:17:13;7.90;;;5.88;;
703;SDS011;335;48.694;9.120;2023-01-31T15:22:42;6.05;;;4.45;;
703;SDS011;335;48.694;9.120;2023-01-31T15:25:17;4.80;;;3.97;;
703;SDS011;335;48.694;9.120;2023-01-31T15:27:46;5.32;;;3.83;;
703;SDS011;335;48.694;9.120;2023-01-31T15:30:15;7.07;;;4.20;;
703;SDS011;335;48.694;9.120;2023-01-31T15:37:52;3.97;;;3.60;;
703;SDS011;335;48.694;9.120;2023-01-31T15:40:21;6.95;;;4.85;;
703;SDS011;335;48.694;9.120;2023-01-31T15:42:49;5.18;;;3.78;;
703;SDS011;335;48.694;9.120;2023-01-31T15:45:27;5.43;;;4.17;;
703;SDS011;335;48.694;9.120;2023-01-31T15:47:54;5.22;;;3.70;;
703;SDS011;335;48.694;9.120;2023-01-31T15:50:36;3.95;;;3.50;;
703;SDS011;335;48.694;9.120;2023-01-31T15:53:03;4.77;;;3.17;;
703;SDS011;335;48.694;9.120;2023-01-31T15:55:29;3.65;;;3.10;;
703;SDS011;335;48.694;9.120;2023-01-31T15:57:56;4.27;;;3.83;;
703;SDS011;335;48.694;9.120;2023-01-31T16:00:27;3.97;;;2.97;;
703;SDS011;335;48.694;9.120;2023-01-31T16:02:54;4.57;;;3.05;;
703;SDS011;335;48.694;9.120;2023-01-31T16:05:36;4.05;;;3.40;;
703;SDS011;335;48.694;9.120;2023-01-31T16:08:03;4.50;;;3.53;;
703;SDS011;335;48.694;9.120;2023-01-31T16:10:30;4.20;;;3.42;;
703;SDS011;335;48.694;9.120;2023-01-31T16:12:56;8.70;;;3.77;;
703;SDS011;335;48.694;9.120;2023-01-31T16:15:24;4.20;;;3.80;;
703;SDS011;335;48.694;9.120;2023-01-31T16:17:50;4.35;;;3.70;;
703;SDS011;335;48.694;9.120;2023-01-31T16:20:37;9.38;;;4.60;;
703;SDS011;335;48.694;9.120;2023-01-31T16:23:29;3.47;;;2.97;;
703;SDS011;335;48.694;9.120;2023-01-31T16:26:01;5.25;;;3.40;;
703;SDS011;335;48.694;9.120;2023-01-31T16:28:28;4.53;;;4.07;;
703;SDS011;335;48.694;9.120;2023-01-31T16:31:02;7.53;;;6.72;;
703;SDS011;335;48.694;9.120;2023-01-31T16:33:29;5.10;;;3.60;;
703;SDS011;335;48.694;9.120;2023-01-31T16:36:08;5.97;;;3.80;;
703;SDS011;335;48.694;9.120;2023-01-31T16:38:34;3.20;;;3.00;;
703;SDS011;335;48.694;9.120;2023-01-31T16:41:00;3.80;;;3.40;;
703;SDS011;335;48.694;9.120;2023-01-31T16:43:31;5.85;;;4.38;;
703;SDS011;335;48.694;9.120;2023-01-31T16:46:04;7.40;;;3.80;;
703;SDS011;335;48.694;9.120;2023-01-31T16:48:33;4.22;;;3.83;;
703;SDS011;335;48.694;9.120;2023-01-31T16:53:53;6.32;;;4.93;;
703;SDS011;335;48.694;9.120;2023-01-31T16:56:34;4.65;;;4.25;;
703;SDS011;335;48.694;9.120;2023-01-31T16:58:59;9.30;;;6.07;;
703;SDS011;335;48.694;9.120;2023-01-31T17:01:31;4.07;;;3.70;;
703;SDS011;335;48.694;9.120;2023-01-31T17:04:18;4.32;;;3.92;;
703;SDS011;335;48.694;9.120;2023-01-31T17:06:44;4.18;;;3.75;;
703;SDS011;335;48.694;9.120;2023-01-31T17:09:14;4.35;;;3.95;;
703;SDS011;335;48.694;9.120;2023-01-31T17:11:41;5.95;;;3.97;;
703;SDS011;335;48.694;9.120;2023-01-31T17:14:07;5.05;;;4.10;;
703;SDS011;335;48.694;9.120;2023-01-31T17:16:33;5.23;;;3.23;;
703;SDS011;335;48.694;9.120;2023-01-31T17:18:58;3.90;;;3.50;;
703;SDS011;335;48.694;9.120;2023-01-31T17:21:23;4.00;;;3.63;;
703;SDS011;335;48.694;9.120;2023-01-31T17:23:50;6.90;;;3.78;;
703;SDS011;335;48.694;9.120;2023-01-31T17:26:20;4.43;;;3.70;;
703;SDS011;335;48.694;9.120;2023-01-31T17:28:46;3.53;;;3.25;;
703;SDS011;335;48.694;9.120;2023-01-31T17:31:17;4.00;;;3.60;;
703;SDS011;335;48.694;9.120;2023-01-31T17:33:44;7.80;;;5.32;;
703;SDS011;335;48.694;9.120;2023-01-31T17:36:09;4.40;;;3.70;;
703;SDS011;335;48.694;9.120;2023-01-31T17:38:35;5.03;;;4.53;;
703;SDS011;335;48.694;9.120;2023-01-31T17:41:01;5.43;;;3.60;;
703;SDS011;335;48.694;9.120;2023-01-31T17:43:27;4.83;;;4.30;;
703;SDS011;335;48.694;9.120;2023-01-31T17:45:52;4.70;;;4.30;;
703;SDS011;335;48.694;9.120;2023-01-31T17:48:17;5.50;;;4.27;;
703;SDS011;335;48.694;9.120;2023-01-31T17:50:43;6.40;;;3.50;;
703;SDS011;335;48.694;9.120;2023-01-31T17:53:13;10.38;;;4.47;;
703;SDS011;335;48.694;9.120;2023-01-31T17:55:39;9.90;;;7.05;;
703;SDS011;335;48.694;9.120;2023-01-31T17:58:05;12.98;;;7.38;;
703;SDS011;335;48.694;9.120;2023-01-31T18:00:30;7.80;;;5.47;;
703;SDS011;335;48.694;9.120;2023-01-31T18:02:56;5.43;;;4.93;;
703;SDS011;335;48.694;9.120;2023-01-31T18:05:21;10.90;;;5.00;;
703;SDS011;335;48.694;9.120;2023-01-31T18:07:47;5.00;;;4.60;;